Aérodrome :
LOGIN :

S'inscrire | Disclaimer

   EN    FR    IT 

 










Légende :    VFR   VFR Marginal   IFR   IFR Intensif   IFR Très Intensif
Visi : 
Plafond : 
>= 8 km
>= 3000ft
5 à 8 km
1000 à 3000 ft
1500m à 5 km
500 à 1000 ft
800 à 1500m
200 à 500 ft
< 800m
< 200 ft
Symboles :   Orages  Brouillard  Fortes neiges  Fortes précipitations  Vent > 20 kt
SIGMETs :   Divers  Orages  Givrage  Turbulence  Onde Orograph.  Cendres Volcan.






- Altitude de l'aérodrome : 465 ft
- Code IATA : LEJ


EDDP - Leipzig Halle

DERNIER METAR :
  • 072350Z 14006KT CAVOK 22/16 Q1020 NOSIG

METARs EXPIRÉS :
  • 072320Z 13007KT CAVOK 23/16 Q1020 NOSIG
  • 072250Z 11006KT 070V160 CAVOK 23/15 Q1020 NOSIG
  • 072220Z 08007KT CAVOK 25/15 Q1020 NOSIG
  • 072150Z 05007KT CAVOK 24/15 Q1020 NOSIG
  • 072120Z 06007KT CAVOK 26/15 Q1020 NOSIG

TAF TAF EDDP
Valide du 08 à 00h jusqu'au 09 à 00h UTC


072300Z 0800/0824 11005KT CAVOK
BECMG 0804/0806 17004KT
BECMG 0808/0810 09005KT
BECMG 0811/0814 02005KT



MET'MAP, la Météo Aéronautique d'un coup d'oeil ! - Copyright ORBIFLY Décembre 2007 - Disclaimer

ORBIFLY MET'MAP TEAM :

Programmation & Développement : Alexandra Zaïnal
Sur une idée originale de : Baudouin d'Aumeries
Assistance à la programmation : Marc-Olivier Méhu
Soutien technique & logistique : Manuel Goepfert

Contact : metmap@orbifly.com




SOURCES & CREDITS :

   NOAA